createdAt,value
2018-11-07T00:00:19.983Z,26.07
2018-11-07T00:02:48.610Z,29.27
2018-11-07T00:05:19.375Z,26.27
2018-11-07T00:07:47.699Z,29.50
2018-11-07T00:10:16.061Z,26.73
2018-11-07T00:12:45.703Z,26.03
2018-11-07T00:15:15.035Z,28.33
2018-11-07T00:17:43.582Z,25.90
2018-11-07T00:20:12.765Z,26.70
2018-11-07T00:22:41.088Z,28.60
2018-11-07T00:25:10.669Z,27.70
2018-11-07T00:27:39.048Z,27.30
2018-11-07T00:30:08.249Z,26.40
2018-11-07T00:32:36.545Z,26.47
2018-11-07T00:35:05.764Z,26.03
2018-11-07T00:37:34.075Z,26.97
2018-11-07T00:40:02.399Z,27.10
2018-11-07T00:42:30.757Z,29.30
2018-11-07T00:44:59.210Z,25.27
2018-11-07T00:47:27.843Z,27.03
2018-11-07T00:49:56.278Z,28.30
2018-11-07T00:52:24.618Z,28.07
2018-11-07T00:54:52.914Z,30.50
2018-11-07T00:57:21.240Z,25.10
2018-11-07T00:59:49.508Z,28.17
2018-11-07T01:02:17.785Z,27.43
2018-11-07T01:04:46.128Z,29.57
2018-11-07T01:07:14.387Z,28.90
2018-11-07T01:09:42.714Z,26.27
2018-11-07T01:12:11.038Z,25.17
2018-11-07T01:14:39.412Z,26.63
2018-11-07T01:17:07.651Z,26.17
2018-11-07T01:19:36.279Z,27.17
2018-11-07T01:22:04.718Z,26.60
2018-11-07T01:24:33.000Z,27.77
2018-11-07T01:27:01.330Z,26.63
2018-11-07T01:29:29.616Z,25.53
2018-11-07T01:31:58.037Z,27.93
2018-11-07T01:34:26.365Z,27.10
2018-11-07T01:36:54.580Z,24.70
2018-11-07T01:39:22.846Z,25.20
2018-11-07T01:41:51.154Z,24.63
2018-11-07T01:44:19.503Z,26.27
2018-11-07T01:46:47.838Z,26.10
2018-11-07T01:49:16.125Z,27.97
2018-11-07T01:51:44.456Z,25.73
2018-11-07T01:54:12.758Z,28.67
2018-11-07T01:56:41.128Z,26.93
2018-11-07T01:59:09.476Z,30.27
2018-11-07T02:01:37.741Z,30.77
2018-11-07T02:04:06.107Z,29.63
2018-11-07T02:06:34.643Z,35.87
2018-11-07T02:09:03.091Z,32.43
2018-11-07T02:11:31.492Z,33.43
2018-11-07T02:13:59.762Z,30.53
2018-11-07T02:16:34.721Z,28.63
2018-11-07T02:19:03.015Z,28.73
2018-11-07T02:21:31.241Z,31.50
2018-11-07T02:23:59.555Z,29.00
2018-11-07T02:26:27.911Z,27.40
2018-11-07T02:28:56.239Z,30.83
2018-11-07T02:31:24.530Z,27.63
2018-11-07T02:33:52.752Z,30.60
2018-11-07T02:36:21.056Z,27.00
2018-11-07T02:38:49.405Z,27.37
2018-11-07T02:41:17.687Z,29.87
2018-11-07T02:43:45.948Z,29.60
2018-11-07T02:46:14.220Z,30.97
2018-11-07T02:48:42.506Z,27.80
2018-11-07T02:51:10.941Z,29.40
2018-11-07T02:53:39.340Z,26.97
2018-11-07T02:56:07.502Z,27.03
2018-11-07T02:58:35.866Z,25.07
2018-11-07T03:01:04.424Z,27.77
2018-11-07T03:03:32.690Z,27.10
2018-11-07T03:06:01.132Z,28.40
2018-11-07T03:08:33.241Z,28.10
2018-11-07T03:11:03.762Z,26.40
2018-11-07T03:13:32.102Z,25.73
2018-11-07T03:16:00.610Z,29.83
2018-11-07T03:18:29.012Z,25.80
2018-11-07T03:20:57.330Z,29.23
2018-11-07T03:23:25.621Z,24.73
2018-11-07T03:25:53.914Z,24.13
2018-11-07T03:28:22.172Z,24.63
2018-11-07T03:30:50.708Z,25.37
2018-11-07T03:33:19.085Z,25.60
2018-11-07T03:35:47.390Z,25.27
2018-11-07T03:38:15.635Z,27.93
2018-11-07T03:40:44.078Z,27.23
2018-11-07T03:43:12.653Z,23.20
2018-11-07T03:45:46.245Z,24.73
2018-11-07T03:48:14.681Z,23.90
2018-11-07T03:50:43.032Z,27.07
2018-11-07T03:53:11.534Z,25.17
2018-11-07T03:55:39.681Z,24.87
2018-11-07T03:58:07.940Z,21.73
2018-11-07T04:00:36.294Z,23.33
2018-11-07T04:03:04.557Z,27.23
2018-11-07T04:05:32.887Z,23.67
2018-11-07T04:08:01.309Z,26.33
2018-11-07T04:10:29.653Z,30.47
2018-11-07T04:12:57.971Z,24.07
2018-11-07T04:15:26.260Z,25.33
2018-11-07T04:17:54.551Z,26.73
2018-11-07T04:20:23.009Z,25.60
2018-11-07T04:22:51.395Z,24.97
2018-11-07T04:25:20.025Z,26.73
2018-11-07T04:27:48.273Z,28.07
2018-11-07T04:30:16.784Z,25.13
2018-11-07T04:32:46.881Z,23.43
2018-11-07T04:35:15.098Z,25.43
2018-11-07T04:37:43.367Z,28.93
2018-11-07T04:40:12.871Z,22.77
2018-11-07T04:42:41.679Z,26.33
2018-11-07T04:45:10.077Z,24.17
2018-11-07T04:47:38.606Z,25.10
2018-11-07T04:50:08.160Z,25.00
2018-11-07T04:52:36.489Z,23.50
2018-11-07T04:55:05.045Z,25.33
2018-11-07T04:57:33.430Z,27.40
2018-11-07T05:00:01.807Z,28.30
2018-11-07T05:02:30.124Z,27.43
2018-11-07T05:04:58.406Z,24.80
2018-11-07T05:07:26.690Z,26.47
2018-11-07T05:09:54.986Z,25.50
2018-11-07T05:12:23.279Z,23.67
2018-11-07T05:14:51.643Z,26.37
2018-11-07T05:17:19.898Z,25.07
2018-11-07T05:19:48.214Z,26.17
2018-11-07T05:22:16.508Z,24.33
2018-11-07T05:24:44.818Z,25.40
2018-11-07T05:27:13.164Z,25.63
2018-11-07T05:29:41.577Z,28.30
2018-11-07T05:32:09.982Z,29.50
2018-11-07T05:34:38.384Z,26.70
2018-11-07T05:37:06.781Z,27.13
2018-11-07T05:39:35.079Z,28.67
2018-11-07T05:42:03.508Z,27.13
2018-11-07T05:44:31.815Z,29.87
2018-11-07T05:47:00.642Z,30.20
2018-11-07T05:49:29.107Z,28.03
2018-11-07T05:51:57.428Z,30.57
2018-11-07T05:54:25.796Z,31.87
2018-11-07T05:56:54.145Z,28.77
2018-11-07T05:59:22.473Z,28.53
2018-11-07T06:01:50.815Z,28.07
2018-11-07T06:04:19.332Z,27.23
2018-11-07T06:06:47.693Z,30.30
2018-11-07T06:09:16.001Z,34.27
2018-11-07T06:11:44.324Z,27.27
2018-11-07T06:14:12.754Z,29.90
2018-11-07T06:16:41.099Z,27.17
2018-11-07T06:19:09.405Z,26.13
2018-11-07T06:21:37.810Z,28.37
2018-11-07T06:24:06.284Z,26.70
2018-11-07T06:26:34.924Z,25.43
2018-11-07T06:29:03.280Z,30.57
2018-11-07T06:31:32.752Z,30.40
2018-11-07T06:34:01.139Z,30.63
2018-11-07T06:36:29.936Z,28.17
2018-11-07T06:38:58.306Z,29.03
2018-11-07T06:41:26.874Z,28.57
2018-11-07T06:43:55.212Z,32.27
2018-11-07T06:46:23.634Z,29.10
2018-11-07T06:48:51.977Z,31.00
2018-11-07T06:51:20.480Z,31.70
2018-11-07T06:53:48.824Z,30.30
2018-11-07T06:56:17.153Z,28.17
2018-11-07T06:58:45.519Z,27.93
2018-11-07T07:01:14.062Z,32.13
2018-11-07T07:03:42.414Z,28.80
2018-11-07T07:06:10.670Z,30.03
2018-11-07T07:08:38.988Z,30.67
2018-11-07T07:11:07.345Z,30.20
2018-11-07T07:13:36.007Z,32.63
2018-11-07T07:16:04.423Z,34.07
2018-11-07T07:18:32.885Z,37.60
2018-11-07T07:21:01.327Z,32.27
2018-11-07T07:23:29.719Z,32.93
2018-11-07T07:25:58.150Z,32.43
2018-11-07T07:28:26.504Z,30.47
2018-11-07T07:30:55.031Z,34.40
2018-11-07T07:33:23.501Z,36.20
2018-11-07T07:35:51.815Z,33.40
2018-11-07T07:38:21.132Z,33.03
2018-11-07T07:40:49.475Z,37.70
2018-11-07T07:43:17.828Z,33.40
2018-11-07T07:45:46.192Z,36.43
2018-11-07T07:48:14.592Z,33.37
2018-11-07T07:50:42.915Z,33.10
2018-11-07T07:53:11.517Z,39.53
2018-11-07T07:55:39.896Z,54.70
2018-11-07T07:58:08.200Z,43.90
2018-11-07T08:00:37.764Z,37.20
2018-11-07T08:03:06.170Z,35.13
2018-11-07T08:05:41.836Z,38.77
2018-11-07T08:08:10.364Z,37.23
2018-11-07T08:10:39.304Z,37.93
2018-11-07T08:13:07.641Z,34.27
2018-11-07T08:15:35.997Z,37.10
2018-11-07T08:18:04.997Z,34.67
2018-11-07T08:20:33.289Z,38.93
2018-11-07T08:23:01.755Z,36.33
2018-11-07T08:25:30.150Z,37.87
2018-11-07T08:27:58.431Z,37.70
2018-11-07T08:30:26.911Z,38.17
2018-11-07T08:32:55.188Z,40.80
2018-11-07T08:35:23.627Z,36.40
2018-11-07T08:37:52.032Z,39.47
2018-11-07T08:40:21.880Z,38.53
2018-11-07T08:42:51.214Z,38.87
2018-11-07T08:45:23.427Z,35.90
2018-11-07T08:47:51.825Z,38.33
2018-11-07T08:50:25.173Z,35.97
2018-11-07T08:53:01.859Z,42.20
2018-11-07T08:55:32.659Z,38.00
2018-11-07T08:58:02.039Z,38.80
2018-11-07T09:00:30.404Z,40.33
2018-11-07T09:02:58.850Z,51.03
2018-11-07T09:05:27.172Z,48.33
2018-11-07T09:07:55.627Z,45.83
2018-11-07T09:10:24.584Z,40.90
2018-11-07T09:12:53.082Z,37.10
2018-11-07T09:15:22.511Z,38.10
2018-11-07T09:17:50.882Z,37.87
2018-11-07T09:20:20.959Z,39.23
2018-11-07T09:22:49.640Z,35.37
2018-11-07T09:25:17.970Z,36.70
2018-11-07T09:27:46.748Z,37.93
2018-11-07T09:30:16.766Z,37.03
2018-11-07T09:32:45.283Z,36.30
2018-11-07T09:35:14.002Z,36.90
2018-11-07T09:37:42.410Z,33.77
2018-11-07T09:40:17.276Z,40.83
2018-11-07T09:42:46.282Z,46.50
2018-11-07T09:45:16.009Z,41.13
2018-11-07T09:47:44.894Z,39.00
2018-11-07T09:50:14.130Z,38.17
2018-11-07T09:52:42.716Z,38.50
2018-11-07T09:55:12.704Z,40.63
2018-11-07T09:57:41.495Z,42.73
2018-11-07T10:00:11.711Z,37.13
2018-11-07T10:02:40.831Z,38.03
2018-11-07T10:05:09.954Z,36.23
2018-11-07T10:07:39.647Z,34.23
2018-11-07T10:10:10.291Z,38.13
2018-11-07T10:12:39.410Z,48.77
2018-11-07T10:15:08.226Z,49.20
2018-11-07T10:17:36.819Z,46.23
2018-11-07T10:22:56.653Z,40.03
2018-11-07T10:25:25.787Z,39.13
2018-11-07T10:27:54.545Z,34.73
2018-11-07T10:30:23.789Z,40.47
2018-11-07T10:32:52.162Z,38.47
2018-11-07T10:35:20.621Z,36.57
2018-11-07T10:37:49.112Z,36.47
2018-11-07T10:40:21.848Z,47.53
2018-11-07T10:42:50.161Z,44.80
2018-11-07T10:45:18.513Z,40.63
2018-11-07T10:47:47.773Z,38.97
2018-11-07T10:50:17.276Z,31.30
2018-11-07T10:52:46.141Z,34.57
2018-11-07T10:55:15.285Z,33.03
2018-11-07T10:57:43.632Z,34.90
2018-11-07T11:00:18.404Z,36.30
2018-11-07T11:02:48.318Z,37.43
2018-11-07T11:05:19.860Z,34.83
2018-11-07T11:07:48.295Z,36.03
2018-11-07T11:10:16.670Z,35.17
2018-11-07T11:12:46.158Z,37.80
2018-11-07T11:15:14.880Z,34.90
2018-11-07T11:17:43.242Z,34.17
2018-11-07T11:20:13.377Z,36.07
2018-11-07T11:22:41.706Z,36.50
2018-11-07T11:25:10.368Z,32.93
2018-11-07T11:27:39.035Z,36.13
2018-11-07T11:30:08.169Z,35.83
2018-11-07T11:32:36.495Z,35.30
2018-11-07T11:35:05.381Z,36.13
2018-11-07T11:37:33.655Z,35.00
2018-11-07T11:40:02.241Z,36.97
2018-11-07T11:42:30.619Z,39.90
2018-11-07T11:44:58.964Z,43.30
2018-11-07T11:47:28.349Z,37.77
2018-11-07T11:49:56.702Z,40.43
2018-11-07T11:52:25.391Z,39.40
2018-11-07T11:54:53.623Z,35.43
2018-11-07T11:57:22.398Z,40.07
2018-11-07T11:59:51.096Z,37.77
2018-11-07T12:02:19.425Z,37.90
2018-11-07T12:04:47.779Z,39.03
2018-11-07T12:07:16.247Z,36.63
2018-11-07T12:09:44.637Z,40.27
2018-11-07T12:12:13.198Z,47.77
2018-11-07T12:14:41.701Z,40.73
2018-11-07T12:17:10.128Z,34.93
2018-11-07T12:19:38.456Z,36.83
2018-11-07T12:22:06.720Z,33.90
2018-11-07T12:24:37.438Z,33.20
2018-11-07T12:27:05.842Z,31.90
2018-11-07T12:29:34.121Z,33.50
2018-11-07T12:32:02.434Z,31.40
2018-11-07T12:34:30.727Z,35.70
2018-11-07T12:36:59.010Z,32.93
2018-11-07T12:39:27.266Z,33.50
2018-11-07T12:41:55.634Z,34.60
2018-11-07T12:44:24.224Z,38.83
2018-11-07T12:46:52.499Z,37.40
2018-11-07T12:49:20.782Z,39.30
2018-11-07T12:51:49.149Z,38.50
2018-11-07T12:54:17.863Z,39.03
2018-11-07T12:56:46.319Z,38.20
2018-11-07T12:59:14.685Z,38.20
2018-11-07T13:01:44.768Z,41.07
2018-11-07T13:04:13.140Z,38.43
2018-11-07T13:06:41.617Z,39.83
2018-11-07T13:09:11.226Z,33.77
2018-11-07T13:11:40.477Z,49.03
2018-11-07T13:14:08.807Z,48.60
2018-11-07T13:16:37.487Z,56.70
2018-11-07T13:19:06.339Z,41.27
2018-11-07T13:21:34.913Z,42.80
2018-11-07T13:24:04.262Z,40.23
2018-11-07T13:26:32.559Z,38.17
2018-11-07T13:29:01.919Z,34.83
2018-11-07T13:31:30.787Z,37.27
2018-11-07T13:34:02.593Z,33.80
2018-11-07T13:36:31.237Z,34.53
2018-11-07T13:39:00.894Z,35.03
2018-11-07T13:41:29.224Z,39.30
2018-11-07T13:43:58.451Z,63.67
2018-11-07T13:46:27.008Z,43.37
2018-11-07T13:48:55.753Z,45.33
2018-11-07T13:51:24.277Z,40.47
2018-11-07T13:53:52.765Z,36.37
2018-11-07T13:56:21.023Z,36.13
2018-11-07T13:58:49.503Z,32.87
2018-11-07T14:01:18.121Z,34.10
2018-11-07T14:03:46.445Z,34.10
2018-11-07T14:06:14.680Z,54.30
2018-11-07T14:08:43.280Z,57.83
2018-11-07T14:11:11.871Z,37.07
2018-11-07T14:13:40.209Z,33.03
2018-11-07T14:16:08.811Z,33.27
2018-11-07T14:18:36.985Z,35.50
2018-11-07T14:21:06.573Z,42.90
2018-11-07T14:23:34.852Z,41.40
2018-11-07T14:26:03.154Z,38.00
2018-11-07T14:28:31.902Z,42.93
2018-11-07T14:31:00.170Z,43.53
2018-11-07T14:33:28.673Z,35.20
2018-11-07T14:35:57.051Z,33.77
2018-11-07T14:38:25.442Z,33.77
2018-11-07T14:40:53.722Z,32.30
2018-11-07T14:43:22.081Z,34.63
2018-11-07T14:45:50.453Z,33.57
2018-11-07T14:48:18.859Z,33.10
2018-11-07T14:50:47.335Z,31.90
2018-11-07T14:53:15.755Z,39.23
2018-11-07T14:55:44.083Z,43.73
2018-11-07T14:58:12.335Z,39.67
2018-11-07T15:00:40.629Z,41.40
2018-11-07T15:03:09.206Z,52.57
2018-11-07T15:05:38.326Z,61.93
2018-11-07T15:08:06.972Z,42.23
2018-11-07T15:10:35.504Z,41.83
2018-11-07T15:13:04.741Z,38.40
2018-11-07T15:15:33.391Z,32.13
2018-11-07T15:18:02.163Z,32.90
2018-11-07T15:20:30.939Z,32.37
2018-11-07T15:22:59.258Z,37.87
2018-11-07T15:25:28.865Z,40.13
2018-11-07T15:28:00.325Z,43.83
2018-11-07T15:30:28.948Z,42.73
2018-11-07T15:32:57.213Z,36.67
2018-11-07T15:35:26.497Z,37.13
2018-11-07T15:37:54.871Z,38.60
2018-11-07T15:40:23.205Z,37.30
2018-11-07T15:42:51.800Z,37.03
2018-11-07T15:45:20.674Z,36.60
2018-11-07T15:47:49.041Z,35.17
2018-11-07T15:50:22.918Z,35.50
2018-11-07T15:52:51.872Z,37.03
2018-11-07T15:55:20.753Z,35.70
2018-11-07T15:57:49.426Z,38.33
2018-11-07T16:00:19.206Z,34.30
2018-11-07T16:02:47.681Z,34.50
2018-11-07T16:05:17.445Z,54.73
2018-11-07T16:07:45.833Z,96.33
2018-11-07T16:10:15.189Z,60.67
2018-11-07T16:12:43.702Z,50.73
2018-11-07T16:15:13.763Z,45.63
2018-11-07T16:17:42.809Z,38.70
2018-11-07T16:20:12.337Z,37.77
2018-11-07T16:22:41.620Z,38.60
2018-11-07T16:25:10.306Z,37.90
2018-11-07T16:27:39.047Z,33.97
2018-11-07T16:30:09.701Z,35.03
2018-11-07T16:32:38.121Z,32.30
2018-11-07T16:35:07.780Z,36.77
2018-11-07T16:37:37.157Z,37.03
2018-11-07T16:40:07.462Z,35.03
2018-11-07T16:42:36.042Z,39.13
2018-11-07T16:45:06.315Z,39.73
2018-11-07T16:47:34.669Z,37.73
2018-11-07T16:50:03.049Z,37.93
2018-11-07T16:52:31.479Z,40.50
2018-11-07T16:55:00.001Z,40.07
2018-11-07T16:57:28.869Z,48.17
2018-11-07T16:59:57.457Z,51.93
2018-11-07T17:02:25.812Z,51.57
2018-11-07T17:04:54.036Z,46.73
2018-11-07T17:07:22.754Z,44.60
2018-11-07T17:09:51.198Z,43.70
2018-11-07T17:12:19.667Z,47.07
2018-11-07T17:14:48.003Z,54.97
2018-11-07T17:17:16.549Z,53.93
2018-11-07T17:19:44.841Z,48.07
2018-11-07T17:22:13.232Z,41.70
2018-11-07T17:24:41.591Z,42.70
2018-11-07T17:27:10.244Z,43.57
2018-11-07T17:29:38.887Z,44.93
2018-11-07T17:32:07.597Z,47.83
2018-11-07T17:34:36.616Z,53.17
2018-11-07T17:37:06.148Z,43.93
2018-11-07T17:39:34.573Z,45.67
2018-11-07T17:42:02.964Z,43.83
2018-11-07T17:44:31.284Z,39.87
2018-11-07T17:46:59.691Z,43.80
2018-11-07T17:49:28.067Z,43.60
2018-11-07T17:51:56.383Z,45.97
2018-11-07T17:54:24.811Z,44.50
2018-11-07T17:56:53.223Z,42.70
2018-11-07T17:59:21.608Z,41.50
2018-11-07T18:01:50.117Z,44.27
2018-11-07T18:04:18.653Z,43.63
2018-11-07T18:06:47.318Z,43.20
2018-11-07T18:09:15.797Z,44.50
2018-11-07T18:11:44.352Z,41.57
2018-11-07T18:14:12.839Z,40.13
2018-11-07T18:16:41.308Z,43.83
2018-11-07T18:19:09.970Z,44.53
2018-11-07T18:21:38.452Z,40.00
2018-11-07T18:24:07.080Z,40.43
2018-11-07T18:26:36.550Z,40.90
2018-11-07T18:29:05.752Z,45.67
2018-11-07T18:31:34.162Z,44.60
2018-11-07T18:34:04.359Z,45.57
2018-11-07T18:36:32.779Z,45.67
2018-11-07T18:39:01.182Z,46.27
2018-11-07T18:41:30.933Z,49.50
2018-11-07T18:44:00.910Z,47.23
2018-11-07T18:46:29.253Z,43.13
2018-11-07T18:48:57.793Z,54.43
2018-11-07T18:51:26.195Z,48.70
2018-11-07T18:53:54.629Z,91.90
2018-11-07T18:56:23.156Z,73.60
2018-11-07T18:58:51.911Z,54.27
2018-11-07T19:01:20.489Z,53.73
2018-11-07T19:03:49.074Z,48.20
2018-11-07T19:06:17.437Z,44.10
2018-11-07T19:08:46.250Z,49.20
2018-11-07T19:11:14.825Z,48.80
2018-11-07T19:13:43.534Z,47.20
2018-11-07T19:16:11.986Z,45.70
2018-11-07T19:18:40.939Z,65.33
2018-11-07T19:21:09.660Z,58.83
2018-11-07T19:23:38.094Z,55.03
2018-11-07T19:26:14.826Z,47.73
2018-11-07T19:28:44.105Z,49.70
2018-11-07T19:31:13.911Z,48.77
2018-11-07T19:33:43.514Z,48.80
2018-11-07T19:36:12.255Z,47.30
2018-11-07T19:38:41.081Z,50.90
2018-11-07T19:41:10.056Z,45.67
2018-11-07T19:43:38.848Z,46.57
2018-11-07T19:46:07.928Z,49.03
2018-11-07T19:48:36.387Z,45.23
2018-11-07T19:51:05.308Z,45.80
2018-11-07T19:53:34.090Z,48.93
2018-11-07T19:56:02.875Z,51.13
2018-11-07T19:58:31.665Z,46.47
2018-11-07T20:01:00.502Z,52.33
2018-11-07T20:03:29.547Z,53.40
2018-11-07T20:05:58.155Z,58.07
2018-11-07T20:08:26.786Z,51.37
2018-11-07T20:10:55.365Z,47.40
2018-11-07T20:13:24.039Z,47.87
2018-11-07T20:15:53.625Z,44.60
2018-11-07T20:18:22.967Z,44.87
2018-11-07T20:20:52.058Z,41.97
2018-11-07T20:23:20.849Z,45.13
2018-11-07T20:25:50.448Z,58.90
2018-11-07T20:28:19.351Z,57.67
2018-11-07T20:30:48.343Z,46.77
2018-11-07T20:33:21.816Z,45.47
2018-11-07T20:35:50.936Z,47.63
2018-11-07T20:38:19.984Z,44.27
2018-11-07T20:40:48.696Z,46.47
2018-11-07T20:43:18.573Z,45.60
2018-11-07T20:45:47.567Z,43.60
2018-11-07T20:48:16.321Z,51.07
2018-11-07T20:50:45.031Z,60.33
2018-11-07T20:53:13.770Z,68.23
2018-11-07T20:55:42.576Z,46.10
2018-11-07T20:58:11.457Z,47.90
2018-11-07T21:00:42.403Z,45.17
2018-11-07T21:03:11.360Z,46.37
2018-11-07T21:05:40.029Z,44.20
2018-11-07T21:08:08.805Z,45.13
2018-11-07T21:10:37.388Z,44.10
2018-11-07T21:13:06.376Z,42.53
2018-11-07T21:15:35.008Z,45.33
2018-11-07T21:18:04.061Z,41.90
2018-11-07T21:20:32.587Z,45.57
2018-11-07T21:23:01.063Z,44.20
2018-11-07T21:25:30.024Z,42.13
2018-11-07T21:27:58.678Z,41.17
2018-11-07T21:30:27.396Z,44.57
2018-11-07T21:35:38.471Z,45.60
2018-11-07T21:38:07.066Z,43.40
2018-11-07T21:40:35.761Z,46.10
2018-11-07T21:43:04.396Z,42.33
2018-11-07T21:45:32.951Z,45.60
2018-11-07T21:48:01.429Z,43.10
2018-11-07T21:50:30.101Z,42.57
2018-11-07T21:52:58.587Z,43.10
2018-11-07T21:55:27.088Z,42.37
2018-11-07T21:57:55.506Z,44.33
2018-11-07T22:00:23.923Z,44.10
2018-11-07T22:02:52.511Z,47.90
2018-11-07T22:05:20.927Z,46.13
2018-11-07T22:07:49.795Z,45.00
2018-11-07T22:10:19.115Z,46.67
2018-11-07T22:12:47.685Z,44.93
2018-11-07T22:15:16.299Z,42.20
2018-11-07T22:17:46.012Z,42.27
2018-11-07T22:20:17.234Z,43.97
2018-11-07T22:22:46.026Z,44.63
2018-11-07T22:25:14.842Z,43.57
2018-11-07T22:27:43.354Z,44.67
2018-11-07T22:30:13.383Z,45.60
2018-11-07T22:32:41.850Z,45.30
2018-11-07T22:35:12.451Z,43.40
2018-11-07T22:37:41.036Z,41.80
2018-11-07T22:40:11.641Z,44.20
2018-11-07T22:42:40.527Z,44.10
2018-11-07T22:45:09.493Z,44.80
2018-11-07T22:47:38.281Z,42.53
2018-11-07T22:50:08.154Z,42.10
2018-11-07T22:52:36.716Z,45.53
2018-11-07T22:55:05.916Z,46.80
2018-11-07T22:57:34.261Z,44.40
2018-11-07T23:00:02.610Z,46.50
2018-11-07T23:02:31.251Z,41.80
2018-11-07T23:04:59.700Z,45.03
2018-11-07T23:07:28.061Z,47.10
2018-11-07T23:09:56.383Z,44.63
2018-11-07T23:12:24.731Z,46.17
2018-11-07T23:14:53.122Z,43.77
2018-11-07T23:17:21.422Z,44.50
2018-11-07T23:19:49.765Z,42.37
2018-11-07T23:22:18.041Z,44.10
2018-11-07T23:24:46.361Z,45.20
2018-11-07T23:27:14.697Z,45.30
2018-11-07T23:29:43.085Z,42.80
2018-11-07T23:32:11.340Z,45.20
2018-11-07T23:34:39.629Z,42.40
2018-11-07T23:37:07.971Z,44.07
2018-11-07T23:39:36.269Z,45.23
2018-11-07T23:42:04.649Z,46.50
2018-11-07T23:44:32.954Z,45.03
2018-11-07T23:47:02.578Z,46.83
2018-11-07T23:49:31.296Z,45.60
2018-11-07T23:51:59.598Z,46.17
2018-11-07T23:54:27.874Z,47.83
2018-11-07T23:56:56.229Z,45.03
2018-11-07T23:59:24.562Z,47.60
